sensor_id;sensor_type;location;lat;lon;timestamp;P1;durP1;ratioP1;P2;durP2;ratioP2
69596;SDS011;56802;51.184;-115.558;2022-08-21T00:02:21;10.80;;;7.40;;
69596;SDS011;56802;51.184;-115.558;2022-08-21T00:04:52;11.50;;;8.20;;
69596;SDS011;56802;51.184;-115.558;2022-08-21T00:07:24;10.90;;;7.80;;
69596;SDS011;56802;51.184;-115.558;2022-08-21T00:09:54;10.60;;;7.50;;
69596;SDS011;56802;51.184;-115.558;2022-08-21T00:12:26;10.90;;;7.40;;
69596;SDS011;56802;51.184;-115.558;2022-08-21T00:14:55;10.50;;;7.40;;
69596;SDS011;56802;51.184;-115.558;2022-08-21T00:17:26;11.70;;;8.00;;
69596;SDS011;56802;51.184;-115.558;2022-08-21T00:19:55;11.20;;;8.20;;
69596;SDS011;56802;51.184;-115.558;2022-08-21T00:22:24;10.90;;;8.10;;
69596;SDS011;56802;51.184;-115.558;2022-08-21T00:24:54;10.80;;;7.80;;
69596;SDS011;56802;51.184;-115.558;2022-08-21T00:27:23;10.30;;;7.40;;
69596;SDS011;56802;51.184;-115.558;2022-08-21T00:29:53;11.30;;;7.40;;
69596;SDS011;56802;51.184;-115.558;2022-08-21T00:32:24;11.40;;;7.50;;
69596;SDS011;56802;51.184;-115.558;2022-08-21T00:34:55;11.70;;;7.80;;
69596;SDS011;56802;51.184;-115.558;2022-08-21T00:37:24;11.80;;;8.10;;
69596;SDS011;56802;51.184;-115.558;2022-08-21T00:39:56;12.40;;;7.60;;
69596;SDS011;56802;51.184;-115.558;2022-08-21T00:42:28;12.30;;;7.40;;
69596;SDS011;56802;51.184;-115.558;2022-08-21T00:44:58;10.70;;;7.70;;
69596;SDS011;56802;51.184;-115.558;2022-08-21T00:47:28;11.20;;;7.90;;
69596;SDS011;56802;51.184;-115.558;2022-08-21T00:49:57;10.60;;;8.00;;
69596;SDS011;56802;51.184;-115.558;2022-08-21T00:52:30;11.00;;;8.30;;
69596;SDS011;56802;51.184;-115.558;2022-08-21T00:55:02;11.10;;;7.90;;
69596;SDS011;56802;51.184;-115.558;2022-08-21T00:57:44;11.30;;;7.80;;
69596;SDS011;56802;51.184;-115.558;2022-08-21T01:00:22;13.10;;;8.50;;
69596;SDS011;56802;51.184;-115.558;2022-08-21T01:02:58;11.00;;;8.10;;
69596;SDS011;56802;51.184;-115.558;2022-08-21T01:05:33;10.80;;;7.70;;
69596;SDS011;56802;51.184;-115.558;2022-08-21T01:08:04;10.90;;;8.30;;
69596;SDS011;56802;51.184;-115.558;2022-08-21T01:10:35;12.70;;;7.70;;
69596;SDS011;56802;51.184;-115.558;2022-08-21T01:13:07;10.90;;;7.50;;
69596;SDS011;56802;51.184;-115.558;2022-08-21T01:15:41;10.60;;;7.90;;
69596;SDS011;56802;51.184;-115.558;2022-08-21T01:18:13;11.40;;;7.90;;
69596;SDS011;56802;51.184;-115.558;2022-08-21T01:23:50;12.70;;;7.70;;
69596;SDS011;56802;51.184;-115.558;2022-08-21T01:26:27;11.50;;;8.20;;
69596;SDS011;56802;51.184;-115.558;2022-08-21T01:32:18;10.20;;;7.50;;
69596;SDS011;56802;51.184;-115.558;2022-08-21T01:34:50;12.40;;;8.70;;
69596;SDS011;56802;51.184;-115.558;2022-08-21T01:37:21;12.20;;;7.90;;
69596;SDS011;56802;51.184;-115.558;2022-08-21T01:39:50;11.30;;;7.60;;
69596;SDS011;56802;51.184;-115.558;2022-08-21T01:42:20;10.60;;;7.70;;
69596;SDS011;56802;51.184;-115.558;2022-08-21T01:44:49;11.10;;;7.60;;
69596;SDS011;56802;51.184;-115.558;2022-08-21T01:47:22;10.40;;;7.70;;
69596;SDS011;56802;51.184;-115.558;2022-08-21T01:49:52;11.30;;;8.20;;
69596;SDS011;56802;51.184;-115.558;2022-08-21T01:52:21;13.50;;;7.90;;
69596;SDS011;56802;51.184;-115.558;2022-08-21T01:54:51;11.10;;;7.70;;
69596;SDS011;56802;51.184;-115.558;2022-08-21T01:57:22;11.10;;;7.60;;
69596;SDS011;56802;51.184;-115.558;2022-08-21T01:59:53;10.90;;;8.00;;
69596;SDS011;56802;51.184;-115.558;2022-08-21T02:02:22;11.40;;;7.90;;
69596;SDS011;56802;51.184;-115.558;2022-08-21T02:04:51;11.50;;;8.10;;
69596;SDS011;56802;51.184;-115.558;2022-08-21T02:07:21;11.40;;;8.20;;
69596;SDS011;56802;51.184;-115.558;2022-08-21T02:09:50;11.20;;;7.70;;
69596;SDS011;56802;51.184;-115.558;2022-08-21T02:12:22;11.10;;;8.20;;
69596;SDS011;56802;51.184;-115.558;2022-08-21T02:14:51;15.00;;;8.30;;
69596;SDS011;56802;51.184;-115.558;2022-08-21T02:17:20;13.20;;;7.60;;
69596;SDS011;56802;51.184;-115.558;2022-08-21T02:19:50;13.70;;;8.50;;
69596;SDS011;56802;51.184;-115.558;2022-08-21T02:22:19;12.50;;;8.30;;
69596;SDS011;56802;51.184;-115.558;2022-08-21T02:24:49;12.70;;;8.50;;
69596;SDS011;56802;51.184;-115.558;2022-08-21T02:27:23;14.00;;;8.80;;
69596;SDS011;56802;51.184;-115.558;2022-08-21T02:29:57;11.30;;;8.30;;
69596;SDS011;56802;51.184;-115.558;2022-08-21T02:32:26;11.50;;;8.50;;
69596;SDS011;56802;51.184;-115.558;2022-08-21T02:34:55;12.40;;;9.00;;
69596;SDS011;56802;51.184;-115.558;2022-08-21T02:37:26;12.50;;;8.60;;
69596;SDS011;56802;51.184;-115.558;2022-08-21T02:39:55;11.60;;;9.00;;
69596;SDS011;56802;51.184;-115.558;2022-08-21T02:42:25;12.50;;;8.80;;
69596;SDS011;56802;51.184;-115.558;2022-08-21T02:44:54;14.10;;;8.60;;
69596;SDS011;56802;51.184;-115.558;2022-08-21T02:47:24;12.10;;;9.00;;
69596;SDS011;56802;51.184;-115.558;2022-08-21T02:49:53;13.10;;;8.40;;
69596;SDS011;56802;51.184;-115.558;2022-08-21T02:52:22;12.40;;;8.90;;
69596;SDS011;56802;51.184;-115.558;2022-08-21T02:54:52;10.90;;;8.30;;
69596;SDS011;56802;51.184;-115.558;2022-08-21T02:57:22;12.50;;;8.60;;
69596;SDS011;56802;51.184;-115.558;2022-08-21T02:59:51;12.30;;;9.00;;
69596;SDS011;56802;51.184;-115.558;2022-08-21T03:02:20;12.70;;;8.40;;
69596;SDS011;56802;51.184;-115.558;2022-08-21T03:04:52;12.40;;;8.40;;
69596;SDS011;56802;51.184;-115.558;2022-08-21T03:07:22;11.80;;;8.10;;
69596;SDS011;56802;51.184;-115.558;2022-08-21T03:09:51;12.80;;;8.30;;
69596;SDS011;56802;51.184;-115.558;2022-08-21T03:12:23;11.40;;;8.40;;
69596;SDS011;56802;51.184;-115.558;2022-08-21T03:14:56;12.00;;;8.30;;
69596;SDS011;56802;51.184;-115.558;2022-08-21T03:17:26;11.40;;;8.20;;
69596;SDS011;56802;51.184;-115.558;2022-08-21T03:19:56;12.00;;;7.90;;
69596;SDS011;56802;51.184;-115.558;2022-08-21T03:22:27;11.80;;;8.10;;
69596;SDS011;56802;51.184;-115.558;2022-08-21T03:24:57;12.80;;;8.70;;
69596;SDS011;56802;51.184;-115.558;2022-08-21T03:27:32;11.10;;;7.80;;
69596;SDS011;56802;51.184;-115.558;2022-08-21T03:30:07;11.90;;;7.80;;
69596;SDS011;56802;51.184;-115.558;2022-08-21T03:32:38;13.50;;;8.60;;
69596;SDS011;56802;51.184;-115.558;2022-08-21T03:35:07;13.80;;;9.20;;
69596;SDS011;56802;51.184;-115.558;2022-08-21T03:37:37;11.40;;;8.50;;
69596;SDS011;56802;51.184;-115.558;2022-08-21T03:40:13;11.00;;;8.10;;
69596;SDS011;56802;51.184;-115.558;2022-08-21T03:42:44;13.80;;;8.50;;
69596;SDS011;56802;51.184;-115.558;2022-08-21T03:45:20;17.70;;;9.60;;
69596;SDS011;56802;51.184;-115.558;2022-08-21T03:47:59;16.40;;;9.40;;
69596;SDS011;56802;51.184;-115.558;2022-08-21T03:50:37;12.70;;;8.10;;
69596;SDS011;56802;51.184;-115.558;2022-08-21T03:53:09;12.80;;;8.70;;
69596;SDS011;56802;51.184;-115.558;2022-08-21T03:55:45;11.90;;;8.20;;
69596;SDS011;56802;51.184;-115.558;2022-08-21T03:58:19;13.40;;;7.80;;
69596;SDS011;56802;51.184;-115.558;2022-08-21T04:00:52;11.90;;;8.30;;
69596;SDS011;56802;51.184;-115.558;2022-08-21T04:03:24;11.70;;;8.20;;
69596;SDS011;56802;51.184;-115.558;2022-08-21T04:05:54;11.00;;;7.60;;
69596;SDS011;56802;51.184;-115.558;2022-08-21T04:08:23;12.10;;;8.70;;
69596;SDS011;56802;51.184;-115.558;2022-08-21T04:10:55;12.30;;;8.30;;
69596;SDS011;56802;51.184;-115.558;2022-08-21T04:13:26;14.80;;;8.50;;
69596;SDS011;56802;51.184;-115.558;2022-08-21T04:15:56;12.40;;;7.80;;
69596;SDS011;56802;51.184;-115.558;2022-08-21T04:18:31;14.70;;;9.80;;
69596;SDS011;56802;51.184;-115.558;2022-08-21T04:21:01;12.90;;;8.90;;
69596;SDS011;56802;51.184;-115.558;2022-08-21T04:23:37;12.80;;;9.10;;
69596;SDS011;56802;51.184;-115.558;2022-08-21T04:26:10;13.40;;;8.30;;
69596;SDS011;56802;51.184;-115.558;2022-08-21T04:28:39;13.50;;;8.20;;
69596;SDS011;56802;51.184;-115.558;2022-08-21T04:31:10;16.30;;;9.80;;
69596;SDS011;56802;51.184;-115.558;2022-08-21T04:33:40;14.30;;;8.30;;
69596;SDS011;56802;51.184;-115.558;2022-08-21T04:36:09;14.00;;;8.40;;
69596;SDS011;56802;51.184;-115.558;2022-08-21T04:38:39;12.50;;;8.40;;
69596;SDS011;56802;51.184;-115.558;2022-08-21T04:41:11;14.70;;;8.80;;
69596;SDS011;56802;51.184;-115.558;2022-08-21T04:43:40;19.70;;;8.60;;
69596;SDS011;56802;51.184;-115.558;2022-08-21T04:46:10;17.40;;;8.90;;
69596;SDS011;56802;51.184;-115.558;2022-08-21T04:48:40;13.60;;;7.90;;
69596;SDS011;56802;51.184;-115.558;2022-08-21T04:51:24;13.00;;;8.40;;
69596;SDS011;56802;51.184;-115.558;2022-08-21T04:54:00;19.10;;;9.20;;
69596;SDS011;56802;51.184;-115.558;2022-08-21T04:56:51;11.30;;;8.40;;
69596;SDS011;56802;51.184;-115.558;2022-08-21T04:59:27;12.50;;;8.30;;
69596;SDS011;56802;51.184;-115.558;2022-08-21T05:02:01;12.60;;;8.20;;
69596;SDS011;56802;51.184;-115.558;2022-08-21T05:04:33;15.00;;;8.90;;
69596;SDS011;56802;51.184;-115.558;2022-08-21T05:07:09;14.80;;;8.90;;
69596;SDS011;56802;51.184;-115.558;2022-08-21T05:09:41;13.40;;;9.10;;
69596;SDS011;56802;51.184;-115.558;2022-08-21T05:12:11;14.20;;;8.60;;
69596;SDS011;56802;51.184;-115.558;2022-08-21T05:14:40;17.70;;;9.80;;
69596;SDS011;56802;51.184;-115.558;2022-08-21T05:17:10;14.70;;;9.00;;
69596;SDS011;56802;51.184;-115.558;2022-08-21T05:19:39;14.70;;;9.30;;
69596;SDS011;56802;51.184;-115.558;2022-08-21T05:22:09;12.30;;;8.40;;
69596;SDS011;56802;51.184;-115.558;2022-08-21T05:24:38;13.70;;;7.90;;
69596;SDS011;56802;51.184;-115.558;2022-08-21T05:27:07;12.40;;;8.00;;
69596;SDS011;56802;51.184;-115.558;2022-08-21T05:29:39;11.20;;;8.20;;
69596;SDS011;56802;51.184;-115.558;2022-08-21T05:32:10;14.00;;;8.50;;
69596;SDS011;56802;51.184;-115.558;2022-08-21T05:34:41;14.80;;;9.00;;
69596;SDS011;56802;51.184;-115.558;2022-08-21T05:37:11;13.80;;;8.80;;
69596;SDS011;56802;51.184;-115.558;2022-08-21T05:39:41;13.30;;;8.70;;
69596;SDS011;56802;51.184;-115.558;2022-08-21T05:42:30;13.30;;;7.90;;
69596;SDS011;56802;51.184;-115.558;2022-08-21T05:45:00;15.70;;;8.80;;
69596;SDS011;56802;51.184;-115.558;2022-08-21T05:47:29;11.40;;;8.50;;
69596;SDS011;56802;51.184;-115.558;2022-08-21T05:49:58;12.80;;;8.70;;
69596;SDS011;56802;51.184;-115.558;2022-08-21T05:52:28;12.70;;;7.90;;
69596;SDS011;56802;51.184;-115.558;2022-08-21T05:54:57;13.50;;;8.50;;
69596;SDS011;56802;51.184;-115.558;2022-08-21T05:57:26;12.90;;;8.40;;
69596;SDS011;56802;51.184;-115.558;2022-08-21T05:59:55;13.70;;;8.20;;
69596;SDS011;56802;51.184;-115.558;2022-08-21T06:02:25;11.80;;;8.40;;
69596;SDS011;56802;51.184;-115.558;2022-08-21T06:04:56;13.50;;;8.00;;
69596;SDS011;56802;51.184;-115.558;2022-08-21T06:07:26;13.40;;;7.60;;
69596;SDS011;56802;51.184;-115.558;2022-08-21T06:09:55;13.00;;;7.90;;
69596;SDS011;56802;51.184;-115.558;2022-08-21T06:12:24;13.00;;;8.40;;
69596;SDS011;56802;51.184;-115.558;2022-08-21T06:14:56;14.60;;;8.90;;
69596;SDS011;56802;51.184;-115.558;2022-08-21T06:17:25;13.20;;;9.20;;
69596;SDS011;56802;51.184;-115.558;2022-08-21T06:19:55;13.30;;;7.80;;
69596;SDS011;56802;51.184;-115.558;2022-08-21T06:22:24;13.40;;;8.70;;
69596;SDS011;56802;51.184;-115.558;2022-08-21T06:24:54;15.60;;;8.90;;
69596;SDS011;56802;51.184;-115.558;2022-08-21T06:27:23;12.70;;;8.30;;
69596;SDS011;56802;51.184;-115.558;2022-08-21T06:29:52;11.90;;;8.40;;
69596;SDS011;56802;51.184;-115.558;2022-08-21T06:32:24;12.70;;;8.10;;
69596;SDS011;56802;51.184;-115.558;2022-08-21T06:34:53;16.70;;;7.90;;
69596;SDS011;56802;51.184;-115.558;2022-08-21T06:37:23;12.40;;;7.50;;
69596;SDS011;56802;51.184;-115.558;2022-08-21T06:39:52;12.20;;;8.30;;
69596;SDS011;56802;51.184;-115.558;2022-08-21T06:42:22;14.70;;;8.20;;
69596;SDS011;56802;51.184;-115.558;2022-08-21T06:44:54;13.60;;;8.20;;
69596;SDS011;56802;51.184;-115.558;2022-08-21T06:47:23;14.10;;;8.50;;
69596;SDS011;56802;51.184;-115.558;2022-08-21T06:49:53;14.60;;;8.00;;
69596;SDS011;56802;51.184;-115.558;2022-08-21T06:52:22;12.30;;;8.70;;
69596;SDS011;56802;51.184;-115.558;2022-08-21T06:54:51;13.40;;;8.60;;
69596;SDS011;56802;51.184;-115.558;2022-08-21T06:57:21;13.40;;;8.10;;
69596;SDS011;56802;51.184;-115.558;2022-08-21T06:59:50;14.30;;;8.50;;
69596;SDS011;56802;51.184;-115.558;2022-08-21T07:02:20;14.40;;;9.00;;
69596;SDS011;56802;51.184;-115.558;2022-08-21T07:04:49;12.50;;;8.30;;
69596;SDS011;56802;51.184;-115.558;2022-08-21T07:07:19;14.10;;;8.30;;
69596;SDS011;56802;51.184;-115.558;2022-08-21T07:09:48;16.50;;;8.80;;
69596;SDS011;56802;51.184;-115.558;2022-08-21T07:12:18;13.50;;;8.70;;
69596;SDS011;56802;51.184;-115.558;2022-08-21T07:14:48;12.70;;;8.70;;
69596;SDS011;56802;51.184;-115.558;2022-08-21T07:17:17;11.60;;;8.50;;
69596;SDS011;56802;51.184;-115.558;2022-08-21T07:19:46;12.00;;;8.00;;
69596;SDS011;56802;51.184;-115.558;2022-08-21T07:22:20;11.80;;;8.40;;
69596;SDS011;56802;51.184;-115.558;2022-08-21T07:24:49;12.60;;;8.50;;
69596;SDS011;56802;51.184;-115.558;2022-08-21T07:27:19;11.50;;;8.30;;
69596;SDS011;56802;51.184;-115.558;2022-08-21T07:29:49;13.80;;;8.70;;
69596;SDS011;56802;51.184;-115.558;2022-08-21T07:32:18;12.20;;;8.20;;
69596;SDS011;56802;51.184;-115.558;2022-08-21T07:34:47;13.40;;;8.40;;
69596;SDS011;56802;51.184;-115.558;2022-08-21T07:37:17;13.30;;;8.20;;
69596;SDS011;56802;51.184;-115.558;2022-08-21T07:39:46;12.60;;;7.80;;
69596;SDS011;56802;51.184;-115.558;2022-08-21T07:42:17;11.80;;;8.00;;
69596;SDS011;56802;51.184;-115.558;2022-08-21T07:44:46;11.40;;;8.10;;
69596;SDS011;56802;51.184;-115.558;2022-08-21T07:47:19;12.50;;;8.90;;
69596;SDS011;56802;51.184;-115.558;2022-08-21T07:50:11;12.50;;;8.50;;
69596;SDS011;56802;51.184;-115.558;2022-08-21T07:52:42;13.70;;;8.30;;
69596;SDS011;56802;51.184;-115.558;2022-08-21T07:55:14;13.60;;;8.30;;
69596;SDS011;56802;51.184;-115.558;2022-08-21T07:57:46;12.10;;;8.30;;
69596;SDS011;56802;51.184;-115.558;2022-08-21T08:00:20;15.00;;;8.50;;
69596;SDS011;56802;51.184;-115.558;2022-08-21T08:02:52;12.30;;;8.40;;
69596;SDS011;56802;51.184;-115.558;2022-08-21T08:05:26;12.60;;;8.70;;
69596;SDS011;56802;51.184;-115.558;2022-08-21T08:07:58;12.80;;;7.90;;
69596;SDS011;56802;51.184;-115.558;2022-08-21T08:10:27;12.30;;;8.40;;
69596;SDS011;56802;51.184;-115.558;2022-08-21T08:12:57;12.00;;;8.40;;
69596;SDS011;56802;51.184;-115.558;2022-08-21T08:15:27;13.10;;;8.30;;
69596;SDS011;56802;51.184;-115.558;2022-08-21T08:18:03;11.80;;;7.90;;
69596;SDS011;56802;51.184;-115.558;2022-08-21T08:20:32;12.60;;;8.50;;
69596;SDS011;56802;51.184;-115.558;2022-08-21T08:23:01;15.20;;;8.90;;
69596;SDS011;56802;51.184;-115.558;2022-08-21T08:25:31;13.80;;;9.10;;
69596;SDS011;56802;51.184;-115.558;2022-08-21T08:28:04;12.90;;;8.90;;
69596;SDS011;56802;51.184;-115.558;2022-08-21T08:30:45;13.20;;;8.60;;
69596;SDS011;56802;51.184;-115.558;2022-08-21T08:33:15;11.50;;;7.80;;
69596;SDS011;56802;51.184;-115.558;2022-08-21T08:35:47;11.40;;;8.40;;
69596;SDS011;56802;51.184;-115.558;2022-08-21T08:38:21;11.90;;;7.80;;
69596;SDS011;56802;51.184;-115.558;2022-08-21T08:41:30;11.90;;;8.10;;
69596;SDS011;56802;51.184;-115.558;2022-08-21T08:44:04;12.50;;;8.10;;
69596;SDS011;56802;51.184;-115.558;2022-08-21T08:52:19;14.80;;;8.80;;
69596;SDS011;56802;51.184;-115.558;2022-08-21T08:55:40;12.70;;;8.50;;
69596;SDS011;56802;51.184;-115.558;2022-08-21T08:58:32;12.60;;;8.30;;
69596;SDS011;56802;51.184;-115.558;2022-08-21T09:01:15;12.00;;;7.90;;
69596;SDS011;56802;51.184;-115.558;2022-08-21T09:03:48;12.00;;;8.30;;
69596;SDS011;56802;51.184;-115.558;2022-08-21T09:12:25;12.90;;;9.40;;
69596;SDS011;56802;51.184;-115.558;2022-08-21T09:27:09;12.10;;;8.90;;
69596;SDS011;56802;51.184;-115.558;2022-08-21T09:29:46;12.60;;;9.00;;
69596;SDS011;56802;51.184;-115.558;2022-08-21T09:32:22;14.30;;;8.90;;
69596;SDS011;56802;51.184;-115.558;2022-08-21T09:35:19;12.00;;;8.60;;
69596;SDS011;56802;51.184;-115.558;2022-08-21T09:40:38;12.90;;;9.10;;
69596;SDS011;56802;51.184;-115.558;2022-08-21T09:45:46;14.40;;;9.10;;
69596;SDS011;56802;51.184;-115.558;2022-08-21T09:48:23;12.70;;;8.80;;
69596;SDS011;56802;51.184;-115.558;2022-08-21T09:51:12;14.60;;;8.80;;
69596;SDS011;56802;51.184;-115.558;2022-08-21T09:53:49;14.90;;;9.10;;
69596;SDS011;56802;51.184;-115.558;2022-08-21T09:59:17;13.40;;;9.10;;
69596;SDS011;56802;51.184;-115.558;2022-08-21T10:01:53;12.00;;;8.70;;
69596;SDS011;56802;51.184;-115.558;2022-08-21T10:04:35;14.50;;;9.60;;
69596;SDS011;56802;51.184;-115.558;2022-08-21T10:07:09;13.10;;;8.80;;
69596;SDS011;56802;51.184;-115.558;2022-08-21T10:09:43;12.80;;;9.00;;
69596;SDS011;56802;51.184;-115.558;2022-08-21T10:12:15;13.40;;;9.50;;
69596;SDS011;56802;51.184;-115.558;2022-08-21T10:15:36;13.60;;;9.00;;
69596;SDS011;56802;51.184;-115.558;2022-08-21T10:18:20;12.60;;;9.30;;
69596;SDS011;56802;51.184;-115.558;2022-08-21T10:37:06;12.80;;;9.30;;
69596;SDS011;56802;51.184;-115.558;2022-08-21T10:40:26;13.60;;;9.60;;
69596;SDS011;56802;51.184;-115.558;2022-08-21T10:43:24;12.00;;;8.90;;
69596;SDS011;56802;51.184;-115.558;2022-08-21T10:46:07;13.40;;;9.30;;
69596;SDS011;56802;51.184;-115.558;2022-08-21T10:48:53;12.80;;;9.80;;
69596;SDS011;56802;51.184;-115.558;2022-08-21T10:51:52;14.00;;;9.90;;
69596;SDS011;56802;51.184;-115.558;2022-08-21T10:55:11;14.70;;;10.00;;
69596;SDS011;56802;51.184;-115.558;2022-08-21T10:58:11;14.50;;;9.70;;
69596;SDS011;56802;51.184;-115.558;2022-08-21T11:00:50;13.90;;;9.60;;
69596;SDS011;56802;51.184;-115.558;2022-08-21T11:03:41;13.20;;;9.80;;
69596;SDS011;56802;51.184;-115.558;2022-08-21T11:06:41;13.40;;;9.70;;
69596;SDS011;56802;51.184;-115.558;2022-08-21T11:09:20;13.80;;;9.30;;
69596;SDS011;56802;51.184;-115.558;2022-08-21T11:12:01;15.20;;;9.30;;
69596;SDS011;56802;51.184;-115.558;2022-08-21T11:21:18;15.00;;;9.00;;
69596;SDS011;56802;51.184;-115.558;2022-08-21T11:29:59;12.60;;;9.00;;
69596;SDS011;56802;51.184;-115.558;2022-08-21T11:35:22;13.50;;;9.50;;
69596;SDS011;56802;51.184;-115.558;2022-08-21T11:41:23;13.50;;;9.10;;
69596;SDS011;56802;51.184;-115.558;2022-08-21T11:44:03;13.60;;;9.00;;
69596;SDS011;56802;51.184;-115.558;2022-08-21T11:50:13;14.10;;;10.30;;
69596;SDS011;56802;51.184;-115.558;2022-08-21T11:53:19;14.20;;;9.30;;
69596;SDS011;56802;51.184;-115.558;2022-08-21T11:56:31;13.80;;;9.30;;
69596;SDS011;56802;51.184;-115.558;2022-08-21T11:59:11;13.20;;;9.60;;
69596;SDS011;56802;51.184;-115.558;2022-08-21T12:01:51;13.20;;;9.70;;
69596;SDS011;56802;51.184;-115.558;2022-08-21T12:04:42;13.10;;;9.40;;
69596;SDS011;56802;51.184;-115.558;2022-08-21T12:07:35;14.20;;;8.90;;
69596;SDS011;56802;51.184;-115.558;2022-08-21T12:10:12;14.50;;;8.90;;
69596;SDS011;56802;51.184;-115.558;2022-08-21T12:12:44;14.40;;;8.60;;
69596;SDS011;56802;51.184;-115.558;2022-08-21T12:18:28;13.70;;;9.50;;
69596;SDS011;56802;51.184;-115.558;2022-08-21T12:21:25;13.10;;;9.70;;
69596;SDS011;56802;51.184;-115.558;2022-08-21T12:24:20;15.80;;;9.90;;
69596;SDS011;56802;51.184;-115.558;2022-08-21T12:26:58;16.00;;;9.40;;
69596;SDS011;56802;51.184;-115.558;2022-08-21T12:29:59;13.30;;;8.70;;
69596;SDS011;56802;51.184;-115.558;2022-08-21T12:32:43;13.70;;;8.90;;
69596;SDS011;56802;51.184;-115.558;2022-08-21T12:35:20;13.30;;;8.60;;
69596;SDS011;56802;51.184;-115.558;2022-08-21T12:38:06;13.70;;;8.50;;
69596;SDS011;56802;51.184;-115.558;2022-08-21T12:41:05;14.20;;;8.90;;
69596;SDS011;56802;51.184;-115.558;2022-08-21T12:43:47;14.00;;;9.40;;
69596;SDS011;56802;51.184;-115.558;2022-08-21T12:46:34;16.10;;;10.00;;
69596;SDS011;56802;51.184;-115.558;2022-08-21T12:52:27;15.80;;;9.10;;
69596;SDS011;56802;51.184;-115.558;2022-08-21T12:55:07;13.70;;;8.40;;
69596;SDS011;56802;51.184;-115.558;2022-08-21T12:57:41;14.00;;;9.10;;
69596;SDS011;56802;51.184;-115.558;2022-08-21T13:00:13;13.80;;;9.10;;
69596;SDS011;56802;51.184;-115.558;2022-08-21T13:02:50;15.10;;;9.00;;
69596;SDS011;56802;51.184;-115.558;2022-08-21T13:05:33;15.20;;;8.90;;
69596;SDS011;56802;51.184;-115.558;2022-08-21T13:08:07;14.90;;;8.90;;
69596;SDS011;56802;51.184;-115.558;2022-08-21T13:10:40;13.40;;;8.90;;
69596;SDS011;56802;51.184;-115.558;2022-08-21T13:13:21;11.90;;;8.30;;
69596;SDS011;56802;51.184;-115.558;2022-08-21T13:15:59;13.50;;;9.10;;
69596;SDS011;56802;51.184;-115.558;2022-08-21T13:18:34;12.80;;;8.40;;
69596;SDS011;56802;51.184;-115.558;2022-08-21T13:21:14;14.40;;;9.00;;
69596;SDS011;56802;51.184;-115.558;2022-08-21T13:23:43;13.10;;;9.20;;
69596;SDS011;56802;51.184;-115.558;2022-08-21T13:26:18;16.20;;;10.30;;
69596;SDS011;56802;51.184;-115.558;2022-08-21T13:28:50;14.10;;;9.60;;
69596;SDS011;56802;51.184;-115.558;2022-08-21T13:31:26;17.30;;;8.70;;
69596;SDS011;56802;51.184;-115.558;2022-08-21T13:33:56;13.90;;;8.90;;
69596;SDS011;56802;51.184;-115.558;2022-08-21T13:36:35;16.90;;;10.10;;
69596;SDS011;56802;51.184;-115.558;2022-08-21T13:39:17;14.90;;;9.80;;
69596;SDS011;56802;51.184;-115.558;2022-08-21T13:41:50;15.10;;;9.70;;
69596;SDS011;56802;51.184;-115.558;2022-08-21T13:44:35;14.40;;;9.60;;
69596;SDS011;56802;51.184;-115.558;2022-08-21T13:47:11;15.00;;;9.30;;
69596;SDS011;56802;51.184;-115.558;2022-08-21T13:49:46;15.50;;;9.00;;
69596;SDS011;56802;51.184;-115.558;2022-08-21T13:52:25;16.40;;;9.70;;
69596;SDS011;56802;51.184;-115.558;2022-08-21T13:54:58;18.20;;;9.50;;
69596;SDS011;56802;51.184;-115.558;2022-08-21T13:57:33;14.70;;;8.60;;
69596;SDS011;56802;51.184;-115.558;2022-08-21T14:00:19;13.40;;;9.00;;
69596;SDS011;56802;51.184;-115.558;2022-08-21T14:03:11;15.70;;;9.10;;
69596;SDS011;56802;51.184;-115.558;2022-08-21T14:05:56;16.80;;;9.20;;
69596;SDS011;56802;51.184;-115.558;2022-08-21T14:08:34;15.40;;;9.90;;
69596;SDS011;56802;51.184;-115.558;2022-08-21T14:11:09;17.50;;;9.90;;
69596;SDS011;56802;51.184;-115.558;2022-08-21T14:13:44;15.60;;;9.80;;
69596;SDS011;56802;51.184;-115.558;2022-08-21T14:16:26;17.90;;;10.90;;
69596;SDS011;56802;51.184;-115.558;2022-08-21T14:21:39;14.70;;;10.20;;
69596;SDS011;56802;51.184;-115.558;2022-08-21T14:27:04;15.00;;;10.60;;
69596;SDS011;56802;51.184;-115.558;2022-08-21T14:29:38;13.50;;;9.50;;
69596;SDS011;56802;51.184;-115.558;2022-08-21T14:32:14;16.90;;;10.20;;
69596;SDS011;56802;51.184;-115.558;2022-08-21T14:34:52;16.00;;;11.50;;
69596;SDS011;56802;51.184;-115.558;2022-08-21T14:37:25;17.10;;;11.10;;
69596;SDS011;56802;51.184;-115.558;2022-08-21T14:39:54;14.80;;;10.20;;
69596;SDS011;56802;51.184;-115.558;2022-08-21T14:42:24;18.30;;;11.00;;
69596;SDS011;56802;51.184;-115.558;2022-08-21T14:44:57;16.50;;;11.00;;
69596;SDS011;56802;51.184;-115.558;2022-08-21T14:47:30;15.40;;;11.40;;
69596;SDS011;56802;51.184;-115.558;2022-08-21T14:49:59;17.00;;;10.80;;
69596;SDS011;56802;51.184;-115.558;2022-08-21T14:52:29;14.60;;;11.00;;
69596;SDS011;56802;51.184;-115.558;2022-08-21T14:54:58;14.80;;;10.90;;
69596;SDS011;56802;51.184;-115.558;2022-08-21T14:57:29;13.90;;;10.90;;
69596;SDS011;56802;51.184;-115.558;2022-08-21T15:00:01;15.00;;;10.00;;
69596;SDS011;56802;51.184;-115.558;2022-08-21T15:02:32;16.60;;;10.70;;
69596;SDS011;56802;51.184;-115.558;2022-08-21T15:05:01;14.60;;;10.00;;
69596;SDS011;56802;51.184;-115.558;2022-08-21T15:07:31;17.70;;;11.00;;
69596;SDS011;56802;51.184;-115.558;2022-08-21T15:10:01;15.40;;;10.20;;
69596;SDS011;56802;51.184;-115.558;2022-08-21T15:12:31;14.70;;;10.10;;
69596;SDS011;56802;51.184;-115.558;2022-08-21T15:15:00;15.30;;;10.00;;
69596;SDS011;56802;51.184;-115.558;2022-08-21T15:17:30;14.50;;;10.20;;
69596;SDS011;56802;51.184;-115.558;2022-08-21T15:19:59;16.80;;;10.60;;
69596;SDS011;56802;51.184;-115.558;2022-08-21T15:34:39;14.70;;;11.90;;
69596;SDS011;56802;51.184;-115.558;2022-08-21T15:37:09;16.80;;;12.00;;
69596;SDS011;56802;51.184;-115.558;2022-08-21T15:39:38;15.80;;;11.70;;
69596;SDS011;56802;51.184;-115.558;2022-08-21T15:42:08;15.60;;;12.10;;
69596;SDS011;56802;51.184;-115.558;2022-08-21T15:44:41;15.40;;;11.60;;
69596;SDS011;56802;51.184;-115.558;2022-08-21T15:47:17;17.10;;;11.50;;
69596;SDS011;56802;51.184;-115.558;2022-08-21T15:49:51;14.40;;;11.20;;
69596;SDS011;56802;51.184;-115.558;2022-08-21T15:52:21;15.80;;;11.50;;
69596;SDS011;56802;51.184;-115.558;2022-08-21T15:54:52;14.00;;;10.90;;
69596;SDS011;56802;51.184;-115.558;2022-08-21T15:57:23;15.80;;;11.50;;
69596;SDS011;56802;51.184;-115.558;2022-08-21T15:59:59;17.40;;;11.60;;
69596;SDS011;56802;51.184;-115.558;2022-08-21T16:02:43;14.30;;;10.70;;
69596;SDS011;56802;51.184;-115.558;2022-08-21T16:05:16;15.30;;;11.60;;
69596;SDS011;56802;51.184;-115.558;2022-08-21T16:07:47;14.60;;;10.60;;
69596;SDS011;56802;51.184;-115.558;2022-08-21T16:10:22;15.20;;;10.50;;
69596;SDS011;56802;51.184;-115.558;2022-08-21T16:13:05;14.40;;;9.50;;
69596;SDS011;56802;51.184;-115.558;2022-08-21T16:15:39;12.20;;;9.00;;
69596;SDS011;56802;51.184;-115.558;2022-08-21T16:18:09;12.00;;;8.60;;
69596;SDS011;56802;51.184;-115.558;2022-08-21T16:20:39;13.20;;;8.90;;